Time;durP1;ratioP1;P1;durP2;ratioP2;P2;SDS_P1;SDS_P2;PMS_P1;PMS_P2;Temp;Humidity;BMP_temperature;BMP_pressure;BME280_temperature;BME280_humidity;BME280_pressure;Samples;Min_cycle;Max_cycle;Signal;HPM_P1;HPM_P2
2022/01/12 00:02:04;;;;;;;6.75;5.40;;;19.20;54.50;;;;;;10419379;28;20037;-54
2022/01/12 00:07:04;;;;;;;7.22;5.18;;;19.20;53.80;;;;;;10421592;28;20034;-55
2022/01/12 00:12:06;;;;;;;6.80;4.93;;;19.20;53.70;;;;;;10418971;28;20466;-55
2022/01/12 00:17:07;;;;;;;6.15;5.00;;;19.20;53.90;;;;;;10400861;28;20029;-54
2022/01/12 00:22:08;;;;;;;7.68;5.47;;;19.20;53.70;;;;;;10430643;28;20033;-55
2022/01/12 00:37:47;;;;;;;8.13;5.53;;;19.20;53.80;;;;;;10512037;28;20048;-55
2022/01/12 00:42:48;;;;;;;6.65;4.65;;;19.20;53.80;;;;;;10482425;28;20464;-55
2022/01/12 00:47:48;;;;;;;7.47;4.82;;;19.20;53.80;;;;;;10500023;28;20024;-54
2022/01/12 00:52:50;;;;;;;6.25;4.28;;;19.20;53.80;;;;;;10481797;28;20034;-55
2022/01/12 00:57:51;;;;;;;6.00;4.43;;;19.10;53.80;;;;;;10498752;28;20523;-55
2022/01/12 01:02:56;;;;;;;6.63;4.97;;;19.10;53.90;;;;;;10481706;28;20082;-55
2022/01/12 01:07:57;;;;;;;7.28;5.20;;;19.00;54.60;;;;;;10479556;28;20056;-55
2022/01/12 01:12:58;;;;;;;5.70;5.10;;;19.10;53.90;;;;;;10521401;28;20527;-55
2022/01/12 01:28:36;;;;;;;6.17;5.07;;;19.20;53.40;;;;;;10482938;28;20423;-55
2022/01/12 01:33:37;;;;;;;6.90;4.88;;;19.20;53.20;;;;;;10490006;28;20028;-55
2022/01/12 01:38:39;;;;;;;5.93;4.70;;;19.20;53.30;;;;;;10526413;28;20023;-55
2022/01/12 01:54:03;;;;;;;6.90;4.72;;;19.20;53.20;;;;;;10496389;28;20044;-55
2022/01/12 01:59:03;;;;;;;5.07;4.35;;;19.10;53.30;;;;;;10479584;28;20070;-56
2022/01/12 02:04:05;;;;;;;6.60;4.38;;;19.10;53.40;;;;;;10485438;28;20028;-55
2022/01/12 02:09:06;;;;;;;5.80;4.65;;;19.00;53.40;;;;;;10490847;28;20524;-54
2022/01/12 02:14:09;;;;;;;6.38;5.07;;;19.10;53.20;;;;;;10479057;28;20032;-57
2022/01/12 02:19:29;;;;;;;6.78;4.60;;;19.10;53.10;;;;;;10479161;28;20025;-55
2022/01/12 02:35:20;;;;;;;5.15;4.65;;;19.10;53.10;;;;;;10495036;28;20036;-55
2022/01/12 02:40:21;;;;;;;5.63;4.72;;;19.10;53.00;;;;;;10509874;28;20066;-54
2022/01/12 02:50:53;;;;;;;6.35;5.15;;;19.20;54.20;;;;;;10507956;28;20037;-55
2022/01/12 02:55:56;;;;;;;5.25;4.50;;;19.30;54.90;;;;;;10510519;28;20545;-55
2022/01/12 03:06:21;;;;;;;6.82;4.88;;;19.10;55.60;;;;;;10511551;28;20036;-55
2022/01/12 03:11:25;;;;;;;6.60;5.30;;;19.10;55.80;;;;;;10483006;28;20552;-55
2022/01/12 03:16:27;;;;;;;5.95;5.13;;;19.10;55.90;;;;;;10485874;28;20028;-55
2022/01/12 03:21:33;;;;;;;7.18;5.57;;;19.00;56.10;;;;;;10503200;28;20025;-55
2022/01/12 03:26:35;;;;;;;6.45;4.75;;;19.00;56.00;;;;;;10516594;28;20108;-55
2022/01/12 03:31:36;;;;;;;7.22;6.10;;;19.00;56.00;;;;;;10490281;28;20110;-55
2022/01/12 03:36:42;;;;;;;5.68;5.03;;;19.00;56.00;;;;;;10544855;28;20089;-55
2022/01/12 03:41:44;;;;;;;7.07;5.50;;;19.00;56.50;;;;;;10544583;28;20028;-55
2022/01/12 03:46:51;;;;;;;7.45;5.95;;;19.10;55.60;;;;;;10513063;28;20039;-56
2022/01/12 03:51:52;;;;;;;6.90;5.57;;;19.10;55.30;;;;;;10513208;28;20105;-56
2022/01/12 03:56:52;;;;;;;7.38;5.35;;;19.10;55.30;;;;;;10543639;28;20073;-56
2022/01/12 04:01:54;;;;;;;5.93;5.30;;;19.10;55.00;;;;;;10526484;28;20050;-55
2022/01/12 04:12:15;;;;;;;11.07;5.50;;;19.10;55.10;;;;;;10501757;28;20488;-55
2022/01/12 04:17:15;;;;;;;7.05;5.38;;;19.00;55.00;;;;;;10466687;28;20035;-55
2022/01/12 04:27:37;;;;;;;6.28;5.53;;;19.00;54.90;;;;;;10485711;28;20076;-55
2022/01/12 04:32:41;;;;;;;7.22;6.03;;;19.10;54.90;;;;;;10485549;28;20536;-56
2022/01/12 04:37:43;;;;;;;6.55;5.10;;;19.00;54.80;;;;;;10519495;28;20058;-55
2022/01/12 04:42:44;;;;;;;6.90;5.63;;;19.00;54.80;;;;;;10519533;28;20507;-56
2022/01/12 04:52:55;;;;;;;7.00;4.93;;;19.10;54.80;;;;;;10511331;28;20501;-55
2022/01/12 04:57:56;;;;;;;8.77;5.93;;;19.10;55.20;;;;;;10487239;28;20090;-55
2022/01/12 05:13:18;;;;;;;7.07;5.53;;;19.00;54.50;;;;;;10502852;28;20434;-53
2022/01/12 05:18:19;;;;;;;6.40;5.43;;;19.10;54.40;;;;;;10500353;28;20107;-55
2022/01/12 05:23:20;;;;;;;7.05;5.72;;;19.00;54.30;;;;;;10503098;28;20421;-54
2022/01/12 05:28:22;;;;;;;6.28;5.68;;;19.00;54.40;;;;;;10518936;28;20036;-56
2022/01/12 05:33:25;;;;;;;7.38;5.25;;;19.10;54.30;;;;;;10519299;28;20454;-55
2022/01/12 05:38:26;;;;;;;6.40;5.65;;;19.00;54.30;;;;;;10531176;28;20031;-54
2022/01/12 05:43:30;;;;;;;6.40;5.47;;;19.10;54.30;;;;;;10498525;28;20404;-55
2022/01/12 05:53:50;;;;;;;7.53;5.33;;;19.10;54.00;;;;;;10490853;28;20119;-54
2022/01/12 05:58:51;;;;;;;7.28;6.55;;;19.10;54.00;;;;;;10485935;28;20047;-57
2022/01/12 06:03:52;;;;;;;6.88;5.60;;;19.00;54.10;;;;;;10479190;28;20032;-55
2022/01/12 06:08:53;;;;;;;6.43;5.78;;;19.10;54.60;;;;;;10501312;28;20120;-53
2022/01/12 06:13:55;;;;;;;8.45;6.03;;;19.10;54.70;;;;;;10504582;28;20093;-56
2022/01/12 06:18:57;;;;;;;13.23;6.30;;;19.10;56.10;;;;;;10477091;28;20024;-55
2022/01/12 06:23:57;;;;;;;7.32;5.38;;;19.10;56.50;;;;;;10476515;28;20116;-56
2022/01/12 06:34:11;;;;;;;13.90;6.50;;;18.90;57.20;;;;;;10499305;28;20429;-55
2022/01/12 06:39:17;;;;;;;11.35;5.90;;;18.90;57.70;;;;;;10508654;28;20047;-54
2022/01/12 06:44:20;;;;;;;10.25;6.05;;;18.90;57.80;;;;;;10517995;28;20123;-54
2022/01/12 06:49:21;;;;;;;11.30;6.18;;;18.90;57.80;;;;;;10517883;28;20028;-53
2022/01/12 06:54:22;;;;;;;12.07;6.35;;;18.80;57.80;;;;;;10535383;28;20032;-54
2022/01/12 06:59:22;;;;;;;14.77;5.82;;;18.80;58.20;;;;;;10517270;28;20028;-53
2022/01/12 07:04:24;;;;;;;12.30;6.82;;;18.80;58.20;;;;;;10516918;28;20069;-56
2022/01/12 07:09:25;;;;;;;14.57;6.88;;;18.70;58.20;;;;;;10510508;28;20070;-54
2022/01/12 07:14:26;;;;;;;12.35;5.90;;;18.60;58.50;;;;;;10489102;28;20507;-55
2022/01/12 07:19:27;;;;;;;18.33;6.15;;;18.60;58.70;;;;;;10496470;28;20107;-53
2022/01/12 07:24:27;;;;;;;15.43;6.63;;;18.60;58.40;;;;;;10515364;28;20027;-55
2022/01/12 07:29:28;;;;;;;21.33;6.38;;;18.60;58.10;;;;;;10495835;28;20051;-55
2022/01/12 07:34:29;;;;;;;11.10;6.50;;;18.60;57.80;;;;;;10514424;28;20039;-55
2022/01/12 07:39:30;;;;;;;14.77;6.60;;;18.60;57.60;;;;;;10523903;28;20511;-53
2022/01/12 07:44:30;;;;;;;17.77;7.15;;;18.60;57.60;;;;;;10528153;28;20036;-55
2022/01/12 07:49:33;;;;;;;12.25;5.78;;;18.50;57.90;;;;;;10529825;28;20226;-55
2022/01/12 07:54:34;;;;;;;15.55;6.57;;;18.70;57.60;;;;;;10522039;28;20032;-57
2022/01/12 07:59:34;;;;;;;13.82;6.15;;;18.80;57.50;;;;;;10489749;28;20040;-56
2022/01/12 08:04:35;;;;;;;12.35;6.20;;;18.80;57.70;;;;;;10497310;28;20032;-56
2022/01/12 08:09:38;;;;;;;12.50;6.00;;;18.90;57.30;;;;;;10485250;28;20025;-53
2022/01/12 08:14:39;;;;;;;10.25;5.97;;;18.80;57.50;;;;;;10481717;28;20039;-56
2022/01/12 08:19:39;;;;;;;12.75;6.07;;;18.70;57.90;;;;;;10502235;28;20047;-54
2022/01/12 08:24:40;;;;;;;10.20;5.45;;;18.70;58.20;;;;;;10521202;28;20045;-56
2022/01/12 08:29:41;;;;;;;10.98;6.05;;;18.70;57.90;;;;;;10501710;28;20119;-57
2022/01/12 08:34:42;;;;;;;11.13;6.47;;;18.80;57.80;;;;;;10500666;28;20138;-56
2022/01/12 08:39:42;;;;;;;12.50;5.55;;;18.80;57.80;;;;;;10515376;28;20428;-56
2022/01/12 08:44:43;;;;;;;13.02;5.53;;;18.80;57.80;;;;;;10500144;28;20510;-55
2022/01/12 08:49:44;;;;;;;9.90;6.45;;;18.70;58.30;;;;;;10522799;28;20108;-53
2022/01/12 08:54:45;;;;;;;10.15;6.05;;;18.60;58.40;;;;;;10492822;28;20035;-53
2022/01/12 08:59:45;;;;;;;17.42;6.13;;;18.70;58.20;;;;;;10500618;28;20384;-51
2022/01/12 09:04:46;;;;;;;11.27;6.22;;;18.60;58.10;;;;;;10512967;28;20027;-53
2022/01/12 09:09:47;;;;;;;9.32;5.53;;;18.70;57.70;;;;;;10486752;28;20041;-53
2022/01/12 09:14:48;;;;;;;9.60;5.80;;;18.60;57.80;;;;;;10475749;28;20095;-53
2022/01/12 09:19:51;;;;;;;7.93;4.95;;;18.70;57.60;;;;;;10477929;28;20038;-53
2022/01/12 09:24:53;;;;;;;8.23;5.50;;;18.60;57.60;;;;;;10485634;28;20143;-55
2022/01/12 09:29:53;;;;;;;8.10;6.03;;;18.60;57.30;;;;;;10493370;28;20472;-51
2022/01/12 09:34:54;;;;;;;8.20;5.10;;;18.60;57.20;;;;;;10496363;28;20031;-52
2022/01/12 09:39:55;;;;;;;7.40;5.68;;;18.60;57.10;;;;;;10538696;28;20036;-53
2022/01/12 09:44:56;;;;;;;9.52;5.57;;;18.60;57.10;;;;;;10537659;28;20028;-53
2022/01/12 09:49:57;;;;;;;10.60;6.40;;;18.60;57.50;;;;;;10519407;28;20020;-49
2022/01/12 09:54:58;;;;;;;8.68;5.22;;;18.70;56.90;;;;;;10536884;28;20044;-52
2022/01/12 09:59:59;;;;;;;9.15;5.90;;;18.80;56.40;;;;;;10517968;28;20085;-53
2022/01/12 10:05:02;;;;;;;7.13;5.07;;;18.70;56.30;;;;;;10502409;28;20035;-53
2022/01/12 10:10:10;;;;;;;7.25;4.60;;;18.80;56.40;;;;;;10503515;28;20111;-53
2022/01/12 10:15:11;;;;;;;7.53;5.78;;;18.70;56.30;;;;;;10513568;28;20032;-51
2022/01/12 10:20:22;;;;;;;6.88;5.03;;;18.60;56.30;;;;;;10531848;28;20107;-53
2022/01/12 10:25:25;;;;;;;10.35;6.85;;;18.70;55.90;;;;;;10496336;28;20041;-53
2022/01/12 10:30:30;;;;;;;9.05;6.05;;;18.80;55.80;;;;;;10492074;28;20080;-53
2022/01/12 10:35:34;;;;;;;9.73;5.95;;;18.70;55.70;;;;;;10509091;28;20047;-53
2022/01/12 10:41:04;;;;;;;15.27;5.80;;;18.70;55.80;;;;;;10517621;28;20074;-53
2022/01/12 10:46:08;;;;;;;17.23;6.00;;;18.80;55.80;;;;;;10512179;28;20024;-54
2022/01/12 10:51:09;;;;;;;11.23;5.22;;;19.00;55.60;;;;;;10517571;28;20058;-53
2022/01/12 10:56:16;;;;;;;12.43;5.35;;;19.00;55.50;;;;;;10481379;28;20029;-53
2022/01/12 11:01:20;;;;;;;12.20;6.75;;;19.00;55.90;;;;;;10511965;28;20035;-54
2022/01/12 11:06:21;;;;;;;13.38;5.97;;;18.90;56.40;;;;;;10470403;28;20024;-54
2022/01/12 11:11:22;;;;;;;9.93;5.30;;;18.90;56.80;;;;;;10492068;28;20040;-53
2022/01/12 11:16:26;;;;;;;12.57;5.45;;;18.80;57.10;;;;;;10525987;28;20074;-54
2022/01/12 11:21:35;;;;;;;8.35;4.78;;;18.80;57.50;;;;;;10512826;28;20028;-54
2022/01/12 11:26:36;;;;;;;9.02;5.07;;;18.70;57.30;;;;;;10513592;28;20024;-53
2022/01/12 11:31:38;;;;;;;12.60;5.22;;;18.70;57.20;;;;;;10530258;28;20044;-51
2022/01/12 11:36:40;;;;;;;22.67;8.32;;;18.70;57.80;;;;;;10531639;28;20020;-53
2022/01/12 11:41:48;;;;;;;11.15;6.28;;;18.60;59.20;;;;;;10526426;28;20060;-53
2022/01/12 11:46:59;;;;;;;9.32;5.25;;;18.70;60.10;;;;;;10526501;28;20498;-52
2022/01/12 11:52:12;;;;;;;13.00;5.25;;;18.70;58.70;;;;;;10513237;28;20055;-51
2022/01/12 11:57:19;;;;;;;11.48;5.05;;;18.80;58.80;;;;;;10526950;28;20035;-53
2022/01/12 12:02:38;;;;;;;7.82;4.43;;;18.70;59.00;;;;;;10506512;28;20031;-53
2022/01/12 12:07:43;;;;;;;12.98;5.72;;;18.60;59.90;;;;;;10508043;28;20036;-53
2022/01/12 12:12:44;;;;;;;8.60;5.03;;;18.70;59.40;;;;;;10501315;28;20093;-50
2022/01/12 12:17:44;;;;;;;9.25;4.35;;;18.70;59.30;;;;;;10518220;28;20090;-54
2022/01/12 12:22:48;;;;;;;8.25;4.60;;;18.60;59.20;;;;;;10541081;28;20341;-52
2022/01/12 12:27:59;;;;;;;9.57;5.30;;;18.60;58.90;;;;;;10500171;28;20036;-52
2022/01/12 12:33:11;;;;;;;9.05;5.55;;;18.70;58.50;;;;;;10541599;28;20032;-54
2022/01/12 12:38:17;;;;;;;9.25;4.88;;;18.60;58.40;;;;;;10527958;28;20075;-53
2022/01/12 12:43:27;;;;;;;7.15;4.55;;;18.50;58.40;;;;;;10506787;28;20796;-54
2022/01/12 12:48:33;;;;;;;10.50;4.55;;;18.50;58.70;;;;;;10537742;28;20035;-53
2022/01/12 12:53:38;;;;;;;9.90;4.95;;;18.40;58.60;;;;;;10540079;28;20446;-53
2022/01/12 12:58:39;;;;;;;7.28;4.47;;;18.50;58.20;;;;;;10499168;28;20415;-54
2022/01/12 13:03:55;;;;;;;7.93;4.72;;;18.50;58.00;;;;;;10506623;28;20033;-52
2022/01/12 13:09:04;;;;;;;7.22;4.20;;;18.60;57.90;;;;;;10481275;28;20514;-53
2022/01/12 13:14:11;;;;;;;8.68;5.03;;;18.50;57.70;;;;;;10498490;28;20036;-53
2022/01/12 13:19:23;;;;;;;8.02;4.75;;;18.50;58.00;;;;;;10464348;28;20056;-49
2022/01/12 13:24:23;;;;;;;10.57;6.38;;;18.40;57.90;;;;;;10511402;28;20118;-55
2022/01/12 13:29:24;;;;;;;13.15;5.30;;;18.50;57.90;;;;;;10479294;28;20052;-53
2022/01/12 13:34:30;;;;;;;15.40;5.57;;;18.60;57.50;;;;;;10496088;28;20036;-53
2022/01/12 13:39:31;;;;;;;14.10;6.25;;;18.50;57.90;;;;;;10519174;28;20028;-52
2022/01/12 13:44:32;;;;;;;11.70;5.07;;;18.50;58.80;;;;;;10484421;28;20526;-53
2022/01/12 13:49:33;;;;;;;16.08;7.22;;;18.50;58.90;;;;;;10496569;28;20484;-53
2022/01/12 13:54:40;;;;;;;13.90;6.10;;;18.60;58.60;;;;;;10531916;28;20041;-51
2022/01/12 13:59:52;;;;;;;14.05;6.13;;;18.60;58.30;;;;;;10507061;28;20028;-54
2022/01/12 14:05:06;;;;;;;16.88;5.43;;;18.60;58.50;;;;;;10467583;28;20611;-54
2022/01/12 14:10:10;;;;;;;15.00;5.28;;;18.60;58.40;;;;;;10484041;28;20020;-54
2022/01/12 14:15:11;;;;;;;11.98;5.18;;;18.50;58.30;;;;;;10495541;28;20040;-53
2022/01/12 14:20:23;;;;;;;14.55;5.85;;;18.50;58.40;;;;;;10478033;28;20029;-47
2022/01/12 14:25:48;;;;;;;13.90;5.60;;;18.60;58.40;;;;;;10485159;28;20028;-51
2022/01/12 14:30:49;;;;;;;15.20;5.78;;;18.40;59.20;;;;;;10505078;28;20036;-55
2022/01/12 14:35:51;;;;;;;17.85;6.45;;;18.40;59.20;;;;;;10496272;28;20027;-56
2022/01/12 14:40:52;;;;;;;24.48;6.97;;;18.50;59.10;;;;;;10498539;28;20032;-55
2022/01/12 14:45:53;;;;;;;18.52;6.13;;;18.50;59.20;;;;;;10516691;28;20027;-56
2022/01/12 14:50:55;;;;;;;22.40;6.97;;;18.50;59.50;;;;;;10496585;28;20035;-55
2022/01/12 14:55:59;;;;;;;13.35;5.85;;;18.40;59.70;;;;;;10502127;28;20153;-57
2022/01/12 15:01:01;;;;;;;15.07;5.25;;;18.50;59.50;;;;;;10496521;28;20032;-54
2022/01/12 15:06:04;;;;;;;24.08;6.85;;;18.40;59.70;;;;;;10513871;28;20060;-55
2022/01/12 15:11:05;;;;;;;17.85;6.45;;;18.40;59.70;;;;;;10519133;28;20028;-55
2022/01/12 15:16:06;;;;;;;18.92;6.40;;;18.40;59.20;;;;;;10536923;28;20026;-55
2022/01/12 15:21:07;;;;;;;15.20;6.03;;;18.40;58.70;;;;;;10484738;28;20054;-56
2022/01/12 15:26:07;;;;;;;17.48;5.82;;;18.50;58.40;;;;;;10472943;28;20366;-55
2022/01/12 15:31:08;;;;;;;14.40;6.63;;;18.50;58.30;;;;;;10493993;28;20105;-54
2022/01/12 15:36:08;;;;;;;10.10;5.82;;;18.40;58.40;;;;;;10504089;28;20103;-55
2022/01/12 15:41:09;;;;;;;14.25;6.18;;;18.40;58.30;;;;;;10480671;28;20032;-54
2022/01/12 15:46:10;;;;;;;15.15;5.60;;;18.40;58.00;;;;;;10505215;28;20093;-55
2022/01/12 15:51:11;;;;;;;15.05;5.43;;;18.50;58.00;;;;;;10487323;28;20120;-55
2022/01/12 15:56:11;;;;;;;10.05;5.47;;;18.50;58.00;;;;;;10520708;28;20036;-55
2022/01/12 16:01:12;;;;;;;10.18;5.38;;;18.50;57.90;;;;;;10521519;28;20119;-55
2022/01/12 16:06:13;;;;;;;13.15;5.97;;;18.40;57.70;;;;;;10523379;28;20043;-53
2022/01/12 16:11:16;;;;;;;8.25;5.05;;;18.50;57.70;;;;;;10482443;28;20480;-55
2022/01/12 16:16:17;;;;;;;11.23;5.68;;;18.50;57.60;;;;;;10513538;28;20027;-54
2022/01/12 16:21:18;;;;;;;11.45;5.60;;;18.40;57.50;;;;;;10513996;28;20503;-52
2022/01/12 16:26:20;;;;;;;14.43;6.10;;;18.30;57.50;;;;;;10521847;28;20036;-54
2022/01/12 16:31:28;;;;;;;21.05;7.15;;;18.30;57.50;;;;;;10459514;28;20048;-56
2022/01/12 16:36:29;;;;;;;16.92;6.03;;;18.40;57.40;;;;;;10441851;28;20060;-56
2022/01/12 16:41:30;;;;;;;18.45;6.75;;;18.40;57.60;;;;;;10455295;28;20029;-56
2022/01/12 16:46:30;;;;;;;19.35;6.95;;;18.40;57.50;;;;;;10451414;28;20040;-55
2022/01/12 16:51:32;;;;;;;17.77;7.32;;;18.40;58.30;;;;;;10427779;28;20113;-54
2022/01/12 16:56:32;;;;;;;13.07;7.25;;;18.50;57.30;;;;;;10441278;28;20037;-54
2022/01/12 17:01:34;;;;;;;20.20;7.28;;;18.70;56.70;;;;;;10449327;28;20033;-53
2022/01/12 17:06:34;;;;;;;13.68;6.90;;;18.70;56.30;;;;;;10454266;28;20017;-55
2022/01/12 17:11:35;;;;;;;14.95;7.15;;;18.70;56.80;;;;;;10442982;28;20406;-53
2022/01/12 17:16:40;;;;;;;12.52;6.45;;;18.70;60.40;;;;;;10453662;28;20454;-55
2022/01/12 17:21:44;;;;;;;13.43;6.32;;;18.80;59.00;;;;;;10455397;28;20036;-55
2022/01/12 17:27:18;;;;;;;12.95;6.63;;;19.00;58.80;;;;;;10454018;28;20420;-56
2022/01/12 17:32:18;;;;;;;16.20;6.30;;;19.00;59.10;;;;;;10495086;28;20036;-57
2022/01/12 17:37:19;;;;;;;16.05;5.30;;;19.00;59.50;;;;;;10496216;28;20438;-55
2022/01/12 17:42:23;;;;;;;8.15;5.30;;;18.80;60.50;;;;;;10495785;28;20509;-56
2022/01/12 17:47:27;;;;;;;12.30;5.63;;;18.80;60.90;;;;;;10495517;28;20132;-55
2022/01/12 17:52:29;;;;;;;13.18;6.05;;;18.70;61.00;;;;;;10490796;28;20111;-56
2022/01/12 17:57:31;;;;;;;9.65;4.97;;;18.70;60.80;;;;;;10460130;28;20029;-56
2022/01/12 18:02:32;;;;;;;11.02;5.38;;;18.70;60.40;;;;;;10464561;28;20443;-55
2022/01/12 18:07:33;;;;;;;12.57;5.18;;;18.70;60.40;;;;;;10464583;28;20071;-54
2022/01/12 18:12:35;;;;;;;15.77;5.88;;;18.50;60.50;;;;;;10473937;28;20033;-54
2022/01/12 18:17:36;;;;;;;11.60;5.47;;;18.50;60.30;;;;;;10481371;28;20670;-54
2022/01/12 18:22:37;;;;;;;11.13;4.85;;;18.60;60.20;;;;;;10488888;28;20721;-54
2022/01/12 18:27:38;;;;;;;9.27;4.88;;;18.60;60.10;;;;;;10491750;28;20032;-54
2022/01/12 18:32:40;;;;;;;8.88;4.28;;;18.70;59.90;;;;;;10498036;28;20028;-55
2022/01/12 18:37:41;;;;;;;7.57;4.63;;;18.60;59.80;;;;;;10494947;28;20036;-55
2022/01/12 18:42:42;;;;;;;8.02;5.00;;;18.60;59.60;;;;;;10498795;28;20511;-54
2022/01/12 18:47:43;;;;;;;7.57;4.78;;;18.60;59.50;;;;;;10500824;28;20035;-55
2022/01/12 18:52:44;;;;;;;9.30;4.65;;;18.60;59.50;;;;;;10485090;28;20028;-55
2022/01/12 18:57:45;;;;;;;7.57;5.35;;;18.60;59.30;;;;;;10511879;28;20037;-55
2022/01/12 19:02:46;;;;;;;8.50;4.25;;;18.70;59.00;;;;;;10472677;28;20535;-55
2022/01/12 19:07:47;;;;;;;6.45;3.70;;;18.70;58.80;;;;;;10481580;28;20038;-55
2022/01/12 19:12:49;;;;;;;8.23;4.47;;;18.80;58.50;;;;;;10492195;28;20485;-54
2022/01/12 19:17:49;;;;;;;6.97;4.38;;;18.80;58.40;;;;;;10511393;28;20028;-55
2022/01/12 19:22:50;;;;;;;8.27;4.55;;;18.70;58.40;;;;;;10514233;28;20025;-54
2022/01/12 19:27:51;;;;;;;7.32;3.90;;;18.70;58.60;;;;;;10511604;28;20043;-52
2022/01/12 19:32:52;;;;;;;6.30;3.58;;;18.70;58.70;;;;;;10505104;28;20123;-56
2022/01/12 19:37:53;;;;;;;5.15;3.38;;;18.60;58.90;;;;;;10520092;28;20035;-55
2022/01/12 19:42:57;;;;;;;8.45;4.43;;;18.70;58.80;;;;;;10509626;28;20119;-55
2022/01/12 19:47:58;;;;;;;7.13;4.35;;;18.70;58.80;;;;;;10536991;28;20020;-55
2022/01/12 19:53:19;;;;;;;6.72;4.00;;;18.70;58.80;;;;;;10512988;28;20063;-54
2022/01/12 19:58:21;;;;;;;7.78;3.90;;;18.70;58.90;;;;;;10501547;28;20056;-55
2022/01/12 20:03:30;;;;;;;6.50;3.70;;;18.70;58.90;;;;;;10533453;28;20070;-55
2022/01/12 20:08:53;;;;;;;8.37;4.27;;;18.70;58.90;;;;;;10517996;28;20032;-55
2022/01/12 20:13:53;;;;;;;8.43;4.60;;;18.70;59.00;;;;;;10537448;28;20052;-56
2022/01/12 20:24:45;;;;;;;7.57;3.83;;;18.70;58.90;;;;;;10509677;28;20043;-53
2022/01/12 20:29:53;;;;;;;5.72;3.80;;;18.60;59.00;;;;;;10524913;28;20328;-56
2022/01/12 20:35:01;;;;;;;5.70;3.55;;;18.60;58.90;;;;;;10542417;28;20483;-55
2022/01/12 20:40:06;;;;;;;6.30;4.28;;;18.60;59.00;;;;;;10509679;28;20138;-55
2022/01/12 20:45:11;;;;;;;7.22;3.70;;;18.70;58.80;;;;;;10521468;28;20509;-55
2022/01/12 20:50:13;;;;;;;7.85;4.28;;;18.70;58.80;;;;;;10522286;28;20020;-54
2022/01/12 20:55:13;;;;;;;6.10;3.60;;;18.70;58.50;;;;;;10482133;28;20037;-53
2022/01/12 21:00:15;;;;;;;7.03;3.42;;;18.70;58.40;;;;;;10497305;28;20476;-55
2022/01/12 21:05:15;;;;;;;6.32;3.60;;;18.80;58.10;;;;;;10519825;28;20036;-56
2022/01/12 21:10:16;;;;;;;4.82;3.70;;;18.80;58.00;;;;;;10537386;28;20507;-56
2022/01/12 21:15:17;;;;;;;6.40;3.72;;;18.80;58.10;;;;;;10508898;28;20029;-55
2022/01/12 21:20:18;;;;;;;7.03;4.47;;;18.70;58.20;;;;;;10498947;28;20114;-55
2022/01/12 21:25:18;;;;;;;6.03;3.45;;;18.80;58.20;;;;;;10498773;28;20565;-55
2022/01/12 21:30:19;;;;;;;8.25;4.22;;;18.70;58.30;;;;;;10489618;28;20040;-54
2022/01/12 21:35:25;;;;;;;5.50;3.85;;;18.70;58.20;;;;;;10498898;28;20036;-56
2022/01/12 21:40:41;;;;;;;5.22;3.58;;;18.70;58.00;;;;;;10464497;28;20044;-56
2022/01/12 21:45:49;;;;;;;6.70;3.22;;;18.80;57.90;;;;;;10479177;28;20385;-55
2022/01/12 21:50:49;;;;;;;7.15;4.20;;;18.80;57.90;;;;;;10497640;28;20021;-54
2022/01/12 21:55:50;;;;;;;7.95;4.35;;;18.70;57.90;;;;;;10479655;28;20081;-55
2022/01/12 22:00:57;;;;;;;5.25;3.40;;;18.80;57.70;;;;;;10497580;28;20036;-55
2022/01/12 22:05:58;;;;;;;5.70;3.55;;;18.80;57.70;;;;;;10497283;28;20051;-54
2022/01/12 22:11:01;;;;;;;5.75;3.53;;;18.80;57.60;;;;;;10462483;28;20035;-58
2022/01/12 22:16:03;;;;;;;7.40;3.97;;;18.80;57.60;;;;;;10510684;28;20024;-54
2022/01/12 22:21:03;;;;;;;5.85;3.67;;;18.80;57.50;;;;;;10496784;28;20107;-55
2022/01/12 22:26:06;;;;;;;5.35;3.90;;;18.80;57.60;;;;;;10461980;28;20463;-55
2022/01/12 22:31:07;;;;;;;6.78;4.07;;;18.80;57.50;;;;;;10492292;28;20032;-54
2022/01/12 22:36:08;;;;;;;6.97;4.20;;;18.80;57.50;;;;;;10492264;28;20039;-55
2022/01/12 22:41:08;;;;;;;4.90;3.45;;;18.80;57.60;;;;;;10514476;28;20032;-56
2022/01/12 22:46:10;;;;;;;6.45;4.65;;;18.80;57.50;;;;;;10524541;28;20142;-56
2022/01/12 22:51:11;;;;;;;7.70;4.72;;;18.80;57.50;;;;;;10530854;28;20052;-55
2022/01/12 22:56:19;;;;;;;6.03;3.65;;;18.80;57.50;;;;;;10478105;28;20487;-56
2022/01/12 23:01:22;;;;;;;5.57;3.92;;;18.80;57.50;;;;;;10497369;28;20113;-56
2022/01/12 23:06:23;;;;;;;8.55;4.03;;;18.80;57.40;;;;;;10522749;28;20028;-58
2022/01/12 23:11:23;;;;;;;6.25;4.05;;;18.80;57.50;;;;;;10511047;28;20025;-54
2022/01/12 23:16:24;;;;;;;6.35;4.43;;;18.80;57.30;;;;;;10517250;28;20037;-55
2022/01/12 23:21:25;;;;;;;6.18;4.63;;;18.80;57.40;;;;;;10506122;28;20357;-55
2022/01/12 23:26:26;;;;;;;5.47;4.07;;;18.80;57.40;;;;;;10479988;28;20047;-56
2022/01/12 23:31:29;;;;;;;6.13;4.43;;;18.80;57.30;;;;;;10503212;28;20041;-56
2022/01/12 23:57:22;;;;;;;8.35;4.72;;;18.80;57.20;;;;;;10484557;28;20044;-55
